createdAt,value
2022-08-27T00:02:24.714Z,14.82
2022-08-27T00:04:53.358Z,15.07
2022-08-27T00:07:21.669Z,15.45
2022-08-27T00:09:49.836Z,14.50
2022-08-27T00:12:18.043Z,14.82
2022-08-27T00:14:47.815Z,15.20
2022-08-27T00:17:16.183Z,15.40
2022-08-27T00:19:44.642Z,14.00
2022-08-27T00:22:14.186Z,14.80
2022-08-27T00:24:48.846Z,15.57
2022-08-27T00:27:20.544Z,14.52
2022-08-27T00:29:50.316Z,14.95
2022-08-27T00:32:19.446Z,15.68
2022-08-27T00:34:50.901Z,15.23
2022-08-27T00:37:19.297Z,15.20
2022-08-27T00:39:47.431Z,14.40
2022-08-27T00:42:15.831Z,14.02
2022-08-27T00:44:44.139Z,14.52
2022-08-27T00:47:18.536Z,13.32
2022-08-27T00:49:53.926Z,15.07
2022-08-27T00:52:25.456Z,12.85
2022-08-27T00:55:01.711Z,14.65
2022-08-27T00:57:31.336Z,13.70
2022-08-27T00:59:59.491Z,14.68
2022-08-27T01:02:31.921Z,13.93
2022-08-27T01:05:04.502Z,13.45
2022-08-27T01:07:36.548Z,14.40
2022-08-27T01:10:08.477Z,14.25
2022-08-27T01:12:42.336Z,14.38
2022-08-27T01:15:19.359Z,12.57
2022-08-27T01:17:50.922Z,13.40
2022-08-27T01:20:30.631Z,12.70
2022-08-27T01:23:11.044Z,13.52
2022-08-27T01:25:43.349Z,11.00
2022-08-27T01:28:13.786Z,12.63
2022-08-27T01:30:42.655Z,12.57
2022-08-27T01:33:12.133Z,13.18
2022-08-27T01:35:40.624Z,11.43
2022-08-27T01:38:18.284Z,12.32
2022-08-27T01:41:04.009Z,11.38
2022-08-27T01:43:34.628Z,14.23
2022-08-27T01:46:02.748Z,12.93
2022-08-27T01:48:30.946Z,14.43
2022-08-27T01:50:59.183Z,12.27
2022-08-27T01:53:27.835Z,13.48
2022-08-27T01:55:56.372Z,14.18
2022-08-27T01:58:28.122Z,13.52
2022-08-27T02:00:59.464Z,13.13
2022-08-27T02:03:27.714Z,13.20
2022-08-27T02:06:08.863Z,12.75
2022-08-27T02:08:37.559Z,12.68
2022-08-27T02:11:06.673Z,13.10
2022-08-27T02:13:36.752Z,12.50
2022-08-27T02:16:05.738Z,14.73
2022-08-27T02:18:37.121Z,12.95
2022-08-27T02:21:05.550Z,14.15
2022-08-27T02:23:33.677Z,12.88
2022-08-27T02:26:01.753Z,11.90
2022-08-27T02:28:29.860Z,13.25
2022-08-27T02:30:59.377Z,12.38
2022-08-27T02:33:27.782Z,12.93
2022-08-27T02:35:56.035Z,13.13
2022-08-27T02:38:25.769Z,13.55
2022-08-27T02:40:54.933Z,13.63
2022-08-27T02:43:24.864Z,13.02
2022-08-27T02:45:53.730Z,13.73
2022-08-27T02:48:24.510Z,13.88
2022-08-27T02:50:52.840Z,12.43
2022-08-27T02:53:20.869Z,13.40
2022-08-27T02:55:50.340Z,13.13
2022-08-27T02:58:18.375Z,13.85
2022-08-27T03:00:47.107Z,13.07
2022-08-27T03:03:15.580Z,13.85
2022-08-27T03:05:45.374Z,13.20
2022-08-27T03:08:13.544Z,13.43
2022-08-27T03:10:42.093Z,13.18
2022-08-27T03:13:12.918Z,12.63
2022-08-27T03:15:40.974Z,13.18
2022-08-27T03:18:20.304Z,13.48
2022-08-27T03:20:51.938Z,14.07
2022-08-27T03:23:23.443Z,13.48
2022-08-27T03:25:56.199Z,13.85
2022-08-27T03:28:26.971Z,13.13
2022-08-27T03:31:00.523Z,13.68
2022-08-27T03:33:29.743Z,14.60
2022-08-27T03:35:59.890Z,14.60
2022-08-27T03:38:28.472Z,13.48
2022-08-27T03:40:59.833Z,13.35
2022-08-27T03:43:27.823Z,14.13
2022-08-27T03:46:05.632Z,13.63
2022-08-27T03:48:34.458Z,14.05
2022-08-27T03:51:08.063Z,13.73
2022-08-27T03:53:37.570Z,13.55
2022-08-27T03:56:06.475Z,13.90
2022-08-27T03:58:37.437Z,14.07
2022-08-27T04:01:08.510Z,13.25
2022-08-27T04:03:37.744Z,13.50
2022-08-27T04:06:07.839Z,13.13
2022-08-27T04:08:36.256Z,12.85
2022-08-27T04:11:06.864Z,13.63
2022-08-27T04:13:34.837Z,13.05
2022-08-27T04:16:02.892Z,13.18
2022-08-27T04:18:31.002Z,14.82
2022-08-27T04:20:59.393Z,14.85
2022-08-27T04:23:28.851Z,14.07
2022-08-27T04:25:56.843Z,14.25
2022-08-27T04:28:24.844Z,13.57
2022-08-27T04:30:53.081Z,14.00
2022-08-27T04:33:21.144Z,13.20
2022-08-27T04:35:49.403Z,13.57
2022-08-27T04:38:17.333Z,12.95
2022-08-27T04:41:04.192Z,12.60
2022-08-27T04:43:32.162Z,12.98
2022-08-27T04:46:00.348Z,12.43
2022-08-27T04:48:28.875Z,12.25
2022-08-27T04:50:57.150Z,12.25
2022-08-27T04:53:28.873Z,12.93
2022-08-27T04:55:59.069Z,12.60
2022-08-27T04:58:27.563Z,12.63
2022-08-27T05:00:59.728Z,12.30
2022-08-27T05:03:28.375Z,12.52
2022-08-27T05:06:01.979Z,11.82
2022-08-27T05:08:30.504Z,12.15
2022-08-27T05:11:02.484Z,11.70
2022-08-27T05:13:31.271Z,11.80
2022-08-27T05:16:03.644Z,11.77
2022-08-27T05:18:35.269Z,12.27
2022-08-27T05:21:07.344Z,11.70
2022-08-27T05:23:40.737Z,12.15
2022-08-27T05:26:12.251Z,11.57
2022-08-27T05:28:40.752Z,11.27
2022-08-27T05:31:11.413Z,12.00
2022-08-27T05:33:40.685Z,11.80
2022-08-27T05:36:15.767Z,11.15
2022-08-27T05:38:44.058Z,11.70
2022-08-27T05:41:16.119Z,11.45
2022-08-27T05:43:49.185Z,11.05
2022-08-27T05:46:20.624Z,10.48
2022-08-27T05:48:49.511Z,11.85
2022-08-27T05:51:25.273Z,12.02
2022-08-27T05:53:57.256Z,11.68
2022-08-27T05:56:28.516Z,11.75
2022-08-27T05:59:15.067Z,11.57
2022-08-27T06:01:46.450Z,12.38
2022-08-27T06:04:17.486Z,11.60
2022-08-27T06:06:46.394Z,11.95
2022-08-27T06:09:18.850Z,12.40
2022-08-27T06:11:49.074Z,12.48
2022-08-27T06:14:17.970Z,11.63
2022-08-27T06:16:46.008Z,11.57
2022-08-27T06:19:14.169Z,11.63
2022-08-27T06:21:43.156Z,11.52
2022-08-27T06:24:13.374Z,11.63
2022-08-27T06:26:43.239Z,12.18
2022-08-27T06:29:14.338Z,12.50
2022-08-27T06:31:43.017Z,11.45
2022-08-27T06:34:12.172Z,10.88
2022-08-27T06:36:42.699Z,12.27
2022-08-27T06:39:13.942Z,12.32
2022-08-27T06:41:44.183Z,11.82
2022-08-27T06:44:14.826Z,11.25
2022-08-27T06:46:43.951Z,11.40
2022-08-27T06:49:13.105Z,11.18
2022-08-27T06:51:46.135Z,11.35
2022-08-27T06:54:15.471Z,11.88
2022-08-27T06:56:44.860Z,11.13
2022-08-27T06:59:17.585Z,12.00
2022-08-27T07:01:49.559Z,11.70
2022-08-27T07:04:21.331Z,10.68
2022-08-27T07:06:50.800Z,11.13
2022-08-27T07:09:20.699Z,11.18
2022-08-27T07:11:51.726Z,11.13
2022-08-27T07:15:16.409Z,11.45
2022-08-27T07:17:46.743Z,11.05
2022-08-27T07:20:16.574Z,10.80
2022-08-27T07:22:45.825Z,10.65
2022-08-27T07:25:19.671Z,10.80
2022-08-27T07:27:48.058Z,11.20
2022-08-27T07:30:18.029Z,10.02
2022-08-27T07:32:48.542Z,10.88
2022-08-27T07:35:16.516Z,10.77
2022-08-27T07:37:44.796Z,10.85
2022-08-27T07:40:15.617Z,10.40
2022-08-27T07:43:24.701Z,9.98
2022-08-27T07:45:56.226Z,10.55
2022-08-27T07:48:26.617Z,10.07
2022-08-27T07:50:58.025Z,10.93
2022-08-27T07:53:26.540Z,10.10
2022-08-27T07:55:54.923Z,11.00
2022-08-27T07:58:22.963Z,10.27
2022-08-27T08:01:15.631Z,10.38
2022-08-27T08:03:45.840Z,10.70
2022-08-27T08:06:17.055Z,10.30
2022-08-27T08:08:45.430Z,10.43
2022-08-27T08:11:16.715Z,10.15
2022-08-27T08:13:45.852Z,9.85
2022-08-27T08:16:14.361Z,10.93
2022-08-27T08:18:42.360Z,10.38
2022-08-27T08:21:15.262Z,10.52
2022-08-27T08:23:44.546Z,10.70
2022-08-27T08:26:13.797Z,10.45
2022-08-27T08:28:42.631Z,10.80
2022-08-27T08:31:10.654Z,10.85
2022-08-27T08:33:39.419Z,11.18
2022-08-27T08:36:10.092Z,10.98
2022-08-27T08:38:41.042Z,11.40
2022-08-27T08:41:32.030Z,11.27
2022-08-27T08:44:05.528Z,10.98
2022-08-27T08:46:42.477Z,10.95
2022-08-27T08:49:30.442Z,12.10
2022-08-27T08:52:10.166Z,11.73
2022-08-27T08:54:47.755Z,11.45
2022-08-27T08:57:26.383Z,10.98
2022-08-27T09:00:01.929Z,12.82
2022-08-27T09:02:30.180Z,11.23
2022-08-27T09:05:04.021Z,11.25
2022-08-27T09:07:37.273Z,11.48
2022-08-27T09:10:14.228Z,11.15
2022-08-27T09:12:42.805Z,11.27
2022-08-27T09:15:17.184Z,11.25
2022-08-27T09:17:47.872Z,11.40
2022-08-27T09:20:21.060Z,11.07
2022-08-27T09:23:05.164Z,11.55
2022-08-27T09:25:37.149Z,11.35
2022-08-27T09:28:30.711Z,11.38
2022-08-27T09:31:06.655Z,11.07
2022-08-27T09:33:42.067Z,11.35
2022-08-27T09:36:23.880Z,10.82
2022-08-27T09:38:57.874Z,10.23
2022-08-27T09:41:33.452Z,10.93
2022-08-27T09:44:08.789Z,10.75
2022-08-27T09:46:37.243Z,10.57
2022-08-27T09:49:12.359Z,9.95
2022-08-27T09:51:43.576Z,10.77
2022-08-27T09:54:13.046Z,10.52
2022-08-27T09:56:49.535Z,9.98
2022-08-27T09:59:23.939Z,10.00
2022-08-27T10:01:54.207Z,9.88
2022-08-27T10:04:28.593Z,9.68
2022-08-27T10:07:00.187Z,9.52
2022-08-27T10:09:33.332Z,9.73
2022-08-27T10:12:10.863Z,9.43
2022-08-27T10:14:46.577Z,9.10
2022-08-27T10:17:23.574Z,8.90
2022-08-27T10:20:03.396Z,9.70
2022-08-27T10:22:41.714Z,9.52
2022-08-27T10:25:24.009Z,8.30
2022-08-27T10:28:05.186Z,8.85
2022-08-27T10:30:43.430Z,8.57
2022-08-27T10:33:23.379Z,9.18
2022-08-27T10:36:06.602Z,8.57
2022-08-27T10:38:47.056Z,7.10
2022-08-27T10:41:19.294Z,7.57
2022-08-27T10:44:24.823Z,7.60
2022-08-27T10:47:10.633Z,7.32
2022-08-27T10:49:48.038Z,7.07
2022-08-27T10:52:23.393Z,7.25
2022-08-27T10:54:58.167Z,7.20
2022-08-27T10:57:55.515Z,6.82
2022-08-27T11:00:36.308Z,7.53
2022-08-27T11:03:13.783Z,6.93
2022-08-27T11:05:46.571Z,7.05
2022-08-27T11:08:20.888Z,6.97
2022-08-27T11:10:57.866Z,6.80
2022-08-27T11:13:34.588Z,8.15
2022-08-27T11:16:21.274Z,8.07
2022-08-27T11:18:57.317Z,7.60
2022-08-27T11:21:34.701Z,7.50
2022-08-27T11:24:35.125Z,8.05
2022-08-27T11:27:11.834Z,8.23
2022-08-27T11:29:49.666Z,7.93
2022-08-27T11:32:31.418Z,8.45
2022-08-27T11:35:05.605Z,8.10
2022-08-27T11:37:56.708Z,7.68
2022-08-27T11:40:44.946Z,7.75
2022-08-27T11:43:18.479Z,7.97
2022-08-27T11:45:59.291Z,7.70
2022-08-27T11:48:32.044Z,9.02
2022-08-27T11:51:03.932Z,8.63
2022-08-27T11:53:33.851Z,8.75
2022-08-27T11:56:16.277Z,9.13
2022-08-27T11:58:52.812Z,8.98
2022-08-27T12:01:27.591Z,9.38
2022-08-27T12:04:06.514Z,8.75
2022-08-27T12:06:43.208Z,8.70
2022-08-27T12:09:17.244Z,8.65
2022-08-27T12:11:56.520Z,8.68
2022-08-27T12:14:43.999Z,8.77
2022-08-27T12:17:23.050Z,8.43
2022-08-27T12:20:06.101Z,8.48
2022-08-27T12:23:14.788Z,8.18
2022-08-27T12:25:43.309Z,8.75
2022-08-27T12:28:11.486Z,8.55
2022-08-27T12:30:42.912Z,9.10
2022-08-27T12:33:29.417Z,8.30
2022-08-27T12:36:05.388Z,8.13
2022-08-27T12:38:50.304Z,8.35
2022-08-27T12:41:32.100Z,8.15
2022-08-27T12:44:08.863Z,8.82
2022-08-27T12:46:45.738Z,9.18
2022-08-27T12:49:37.931Z,8.38
2022-08-27T12:52:23.848Z,8.27
2022-08-27T12:55:09.118Z,8.25
2022-08-27T12:57:45.234Z,8.10
2022-08-27T13:00:19.498Z,8.48
2022-08-27T13:03:14.331Z,7.97
2022-08-27T13:05:47.643Z,8.05
2022-08-27T13:08:25.742Z,8.10
2022-08-27T13:10:53.811Z,7.32
2022-08-27T13:13:24.431Z,8.55
2022-08-27T13:15:55.819Z,8.10
2022-08-27T13:18:24.937Z,7.65
2022-08-27T13:21:04.196Z,7.88
2022-08-27T13:23:35.386Z,7.45
2022-08-27T13:26:09.218Z,7.60
2022-08-27T13:28:41.160Z,7.70
2022-08-27T13:31:11.725Z,7.55
2022-08-27T13:33:42.419Z,8.07
2022-08-27T13:36:11.697Z,7.75
2022-08-27T13:38:49.789Z,7.88
2022-08-27T13:41:29.738Z,7.72
2022-08-27T13:43:59.758Z,8.27
2022-08-27T13:46:34.101Z,8.05
2022-08-27T13:49:02.756Z,7.45
2022-08-27T13:51:33.543Z,7.38
2022-08-27T13:54:16.115Z,7.40
2022-08-27T13:57:03.643Z,7.00
2022-08-27T13:59:33.263Z,6.95
2022-08-27T14:02:04.998Z,7.68
2022-08-27T14:04:40.825Z,6.93
2022-08-27T14:07:13.687Z,7.13
2022-08-27T14:09:54.635Z,6.90
2022-08-27T14:12:33.145Z,6.35
2022-08-27T14:15:22.421Z,6.70
2022-08-27T14:17:51.513Z,7.15
2022-08-27T14:20:23.151Z,6.93
2022-08-27T14:22:55.880Z,6.53
2022-08-27T14:25:25.534Z,6.25
2022-08-27T14:27:55.457Z,6.13
2022-08-27T14:30:29.137Z,6.78
2022-08-27T14:32:58.819Z,7.38
2022-08-27T14:35:30.002Z,6.53
2022-08-27T14:38:00.009Z,6.80
2022-08-27T14:40:32.942Z,6.55
2022-08-27T14:43:01.280Z,6.97
2022-08-27T14:45:29.506Z,6.22
2022-08-27T14:48:02.023Z,6.53
2022-08-27T14:50:30.884Z,7.10
2022-08-27T14:53:04.339Z,7.55
2022-08-27T14:55:34.459Z,6.97
2022-08-27T14:58:02.718Z,6.82
2022-08-27T15:00:31.407Z,7.30
2022-08-27T15:02:59.782Z,8.10
2022-08-27T15:05:28.537Z,8.40
2022-08-27T15:07:58.203Z,8.13
2022-08-27T15:10:26.768Z,8.63
2022-08-27T15:12:56.584Z,7.80
2022-08-27T15:15:26.179Z,7.38
2022-08-27T15:17:54.376Z,7.30
2022-08-27T15:20:22.775Z,7.97
2022-08-27T15:22:53.531Z,7.05
2022-08-27T15:25:22.431Z,7.20
2022-08-27T15:27:51.054Z,6.90
2022-08-27T15:30:26.190Z,7.30
2022-08-27T15:32:55.766Z,7.55
2022-08-27T15:35:27.469Z,7.57
2022-08-27T15:37:57.890Z,7.82
2022-08-27T15:40:32.971Z,8.57
2022-08-27T15:43:08.086Z,8.52
2022-08-27T15:45:39.958Z,10.30
2022-08-27T15:48:08.321Z,9.20
2022-08-27T15:50:36.680Z,8.95
2022-08-27T15:53:08.564Z,9.52
2022-08-27T15:55:40.585Z,9.65
2022-08-27T15:58:17.019Z,9.40
2022-08-27T16:01:04.236Z,9.82
2022-08-27T16:03:35.680Z,9.63
2022-08-27T16:06:05.568Z,9.13
2022-08-27T16:08:36.665Z,9.57
2022-08-27T16:11:05.350Z,9.05
2022-08-27T16:13:33.562Z,10.45
2022-08-27T16:16:03.228Z,10.73
2022-08-27T16:18:34.124Z,10.88
2022-08-27T16:21:04.224Z,10.85
2022-08-27T16:23:33.205Z,12.25
2022-08-27T16:26:02.023Z,11.63
2022-08-27T16:28:30.165Z,10.95
2022-08-27T16:30:58.919Z,13.45
2022-08-27T16:33:29.899Z,15.35
2022-08-27T16:35:58.178Z,12.27
2022-08-27T16:38:33.126Z,12.48
2022-08-27T16:41:01.530Z,14.88
2022-08-27T16:43:29.897Z,15.60
2022-08-27T16:46:03.611Z,14.07
2022-08-27T16:49:00.893Z,30.98
2022-08-27T16:51:32.616Z,13.13
2022-08-27T16:54:02.908Z,12.60
2022-08-27T16:56:36.888Z,13.40
2022-08-27T16:59:07.406Z,14.65
2022-08-27T17:01:38.326Z,14.23
2022-08-27T17:04:15.377Z,15.15
2022-08-27T17:06:51.699Z,12.82
2022-08-27T17:09:20.401Z,11.65
2022-08-27T17:11:54.751Z,12.10
2022-08-27T17:14:22.858Z,12.32
2022-08-27T17:16:54.083Z,13.57
2022-08-27T17:19:26.264Z,14.20
2022-08-27T17:21:55.444Z,12.98
2022-08-27T17:24:23.765Z,13.50
2022-08-27T17:26:51.999Z,12.73
2022-08-27T17:29:20.200Z,15.18
2022-08-27T17:31:48.443Z,15.45
2022-08-27T17:34:22.784Z,14.13
2022-08-27T17:36:53.974Z,13.82
2022-08-27T17:39:22.888Z,13.13
2022-08-27T17:41:52.986Z,14.02
2022-08-27T17:44:25.225Z,13.52
2022-08-27T17:46:55.953Z,13.93
2022-08-27T17:49:24.582Z,13.82
2022-08-27T17:51:58.339Z,13.30
2022-08-27T17:54:30.949Z,13.98
2022-08-27T17:56:59.463Z,13.20
2022-08-27T17:59:27.911Z,13.43
2022-08-27T18:01:56.680Z,13.63
2022-08-27T18:04:25.459Z,12.43
2022-08-27T18:06:54.753Z,13.43
2022-08-27T18:09:22.930Z,13.02
2022-08-27T18:11:51.084Z,12.73
2022-08-27T18:14:19.340Z,13.50
2022-08-27T18:16:47.785Z,13.27
2022-08-27T18:19:15.807Z,14.25
2022-08-27T18:21:46.937Z,14.02
2022-08-27T18:24:17.355Z,12.07
2022-08-27T18:26:47.044Z,13.18
2022-08-27T18:29:16.384Z,13.73
2022-08-27T18:31:44.970Z,14.07
2022-08-27T18:34:17.530Z,13.60
2022-08-27T18:36:48.327Z,13.50
2022-08-27T18:39:17.804Z,14.20
2022-08-27T18:41:46.062Z,14.10
2022-08-27T18:44:17.747Z,14.13
2022-08-27T18:46:46.395Z,13.90
2022-08-27T18:49:14.537Z,14.40
2022-08-27T18:51:48.085Z,14.57
2022-08-27T18:54:20.523Z,13.43
2022-08-27T18:56:48.860Z,14.68
2022-08-27T18:59:17.652Z,14.52
2022-08-27T19:01:46.294Z,13.93
2022-08-27T19:04:14.606Z,14.55
2022-08-27T19:06:45.217Z,14.98
2022-08-27T19:09:16.781Z,14.23
2022-08-27T19:11:46.188Z,14.50
2022-08-27T19:14:14.754Z,14.15
2022-08-27T19:16:47.110Z,14.10
2022-08-27T19:19:19.282Z,15.18
2022-08-27T19:21:51.344Z,13.82
2022-08-27T19:24:20.201Z,14.60
2022-08-27T19:26:50.652Z,14.98
2022-08-27T19:29:19.817Z,15.23
2022-08-27T19:31:48.326Z,16.55
2022-08-27T19:34:22.668Z,14.70
2022-08-27T19:36:50.802Z,15.38
2022-08-27T19:39:19.066Z,16.33
2022-08-27T19:41:50.110Z,15.77
2022-08-27T19:44:55.671Z,16.45
2022-08-27T19:47:27.869Z,16.08
2022-08-27T19:49:56.642Z,15.90
2022-08-27T19:52:25.242Z,16.02
2022-08-27T19:55:12.445Z,16.60
2022-08-27T19:57:43.375Z,15.25
2022-08-27T20:00:14.488Z,16.77
2022-08-27T20:02:42.517Z,17.17
2022-08-27T20:05:19.258Z,15.32
2022-08-27T20:07:48.384Z,17.10
2022-08-27T20:10:17.061Z,16.27
2022-08-27T20:12:47.810Z,16.13
2022-08-27T20:15:16.182Z,16.95
2022-08-27T20:17:45.237Z,16.75
2022-08-27T20:20:14.792Z,16.35
2022-08-27T20:22:43.246Z,17.02
2022-08-27T20:25:13.354Z,16.98
2022-08-27T20:27:44.463Z,18.52
2022-08-27T20:30:15.443Z,19.52
2022-08-27T20:32:43.485Z,19.63
2022-08-27T20:35:13.993Z,18.25
2022-08-27T20:37:42.770Z,18.42
2022-08-27T20:40:14.579Z,16.23
2022-08-27T20:42:42.608Z,16.90
2022-08-27T20:45:12.358Z,16.33
2022-08-27T20:47:43.412Z,17.15
2022-08-27T20:50:12.855Z,16.77
2022-08-27T20:52:41.393Z,17.60
2022-08-27T20:55:12.342Z,17.45
2022-08-27T20:58:04.508Z,16.80
2022-08-27T21:00:37.424Z,17.65
2022-08-27T21:03:07.512Z,18.00
2022-08-27T21:05:36.469Z,17.33
2022-08-27T21:08:06.436Z,17.48
2022-08-27T21:10:35.856Z,18.15
2022-08-27T21:13:09.873Z,18.20
2022-08-27T21:15:43.768Z,16.98
2022-08-27T21:18:15.816Z,19.02
2022-08-27T21:20:43.745Z,17.88
2022-08-27T21:23:11.627Z,18.23
2022-08-27T21:25:39.925Z,18.42
2022-08-27T21:28:09.742Z,17.80
2022-08-27T21:30:39.730Z,17.33
2022-08-27T21:33:08.154Z,12.57
2022-08-27T21:35:38.944Z,10.45
2022-08-27T21:38:06.988Z,10.90
2022-08-27T21:40:35.244Z,10.63
2022-08-27T21:43:03.626Z,8.77
2022-08-27T21:45:31.931Z,8.82
2022-08-27T21:47:59.874Z,7.00
2022-08-27T21:50:28.165Z,6.50
2022-08-27T21:52:59.817Z,6.07
2022-08-27T21:55:27.854Z,5.28
2022-08-27T21:57:55.928Z,4.45
2022-08-27T22:00:43.924Z,4.15
2022-08-27T22:03:15.381Z,3.97
2022-08-27T22:05:44.517Z,3.67
2022-08-27T22:08:16.870Z,3.80
2022-08-27T22:10:47.424Z,4.05
2022-08-27T22:13:15.839Z,3.83
2022-08-27T22:15:43.863Z,4.03
2022-08-27T22:18:12.858Z,4.00
2022-08-27T22:20:41.492Z,4.28
2022-08-27T22:23:12.572Z,4.55
2022-08-27T22:25:43.099Z,4.90
2022-08-27T22:28:11.760Z,4.40
2022-08-27T22:30:40.454Z,4.18
2022-08-27T22:33:09.036Z,4.22
2022-08-27T22:35:36.988Z,4.15
2022-08-27T22:38:09.115Z,4.03
2022-08-27T22:40:38.825Z,4.10
2022-08-27T22:43:08.785Z,3.58
2022-08-27T22:45:41.141Z,3.55
2022-08-27T22:48:09.585Z,3.47
2022-08-27T22:50:37.657Z,3.33
2022-08-27T22:53:06.368Z,3.58
2022-08-27T22:55:34.617Z,2.97
2022-08-27T22:58:03.098Z,3.40
2022-08-27T23:00:35.692Z,3.25
2022-08-27T23:03:07.077Z,3.08
2022-08-27T23:05:41.468Z,3.10
2022-08-27T23:08:13.375Z,2.97
2022-08-27T23:10:43.086Z,3.03
2022-08-27T23:13:11.914Z,3.50
2022-08-27T23:15:42.631Z,3.63
2022-08-27T23:18:10.809Z,3.42
2022-08-27T23:20:40.870Z,3.30
2022-08-27T23:23:10.192Z,3.63
2022-08-27T23:25:56.693Z,3.45
2022-08-27T23:28:25.164Z,3.40
2022-08-27T23:30:55.139Z,3.40
2022-08-27T23:33:23.522Z,3.15
2022-08-27T23:35:51.989Z,3.25
2022-08-27T23:38:22.188Z,2.90
2022-08-27T23:40:52.333Z,2.78
2022-08-27T23:43:22.003Z,2.92
2022-08-27T23:45:50.337Z,2.67
2022-08-27T23:48:20.628Z,2.50
2022-08-27T23:50:49.318Z,2.53
2022-08-27T23:53:17.426Z,2.72
2022-08-27T23:55:45.627Z,2.80
2022-08-27T23:58:14.159Z,2.35
